New Freedom, Pennsylvania
Current Conditions -  °F | °C
As of 11:53 AM on Thursday 23 Oct 2014 (Local Time) from KTHV Reporting Station
Overcast Overcast  
Wind Chill: 57°   Ceiling: 3200
Heat Index: 57°   Visibility: 10mi
Dew Point: 44°   Wind: 10mph
Humidity: 62%   Direction: 320°NW
Pressure: 29.87"   Gusts: 20mph
Location:  39.74°N, 76.7°W
Report Text: KTHV 231553Z AUTO 32009G17KT 10SM OVC032 14/07 A2987 RMK AO2 SLP119 T01390067
Loading
Personal Weather Stations






























Interactive Weather Map
Tropical Storm Tracking
New forecast layout! Learn more

10-Day Weather Forecast

Advertisements
Track Severe Weather on mobile